createdAt,value
2018-08-21T20:10:29.342Z,65.82
2018-08-21T20:11:43.992Z,64.98
2018-08-21T20:12:57.791Z,65.05
2018-08-21T20:14:12.109Z,65.43
2018-08-21T20:15:26.951Z,65.24
2018-08-21T20:16:42.090Z,65.24
2018-08-21T20:18:11.153Z,65.82
2018-08-21T20:19:25.491Z,65.92
2018-08-21T20:20:39.525Z,66.02
2018-08-21T20:21:53.132Z,65.92
2018-08-21T20:23:07.876Z,65.92
2018-08-21T20:24:22.905Z,66.3
2018-08-21T20:25:36.781Z,66.2
2018-08-21T20:26:52.049Z,66.69
2018-08-21T20:28:08.163Z,66.47
2018-08-21T20:29:24.499Z,66.6
2018-08-21T20:30:39.427Z,66.66
2018-08-21T20:31:54.552Z,66.47
2018-08-21T20:33:09.455Z,66.75
2018-08-21T20:34:24.839Z,66.95
2018-08-21T20:35:39.533Z,66.85
2018-08-21T20:36:55.125Z,67.34
2018-08-21T20:38:11.045Z,67.14
2018-08-21T20:39:26.273Z,67.34
2018-08-21T20:40:40.423Z,67.53
2018-08-21T20:41:55.000Z,67.44
2018-08-21T20:43:09.233Z,67.24
2018-08-21T20:44:23.496Z,67.44
2018-08-21T20:45:37.942Z,67.82
2018-08-21T20:46:52.611Z,68.12
2018-08-21T20:48:07.302Z,67.72
2018-08-21T20:49:22.077Z,67.92
2018-08-21T20:50:35.892Z,67.6
2018-08-21T20:51:49.967Z,68.5
2018-08-21T20:53:04.717Z,68.4
2018-08-21T20:54:18.922Z,68.21
2018-08-21T20:55:33.450Z,68.66
2018-08-21T20:56:47.521Z,68.27
2018-08-21T20:58:01.353Z,68.56
2018-08-21T20:59:15.407Z,68.4
2018-08-21T21:00:29.326Z,68.66
2018-08-21T21:01:43.534Z,68.6
2018-08-21T21:02:58.211Z,68.76
2018-08-21T21:04:12.838Z,68.56
2018-08-21T21:05:27.553Z,68.85
2018-08-21T21:06:42.709Z,68.79
2018-08-21T21:07:57.368Z,68.66
2018-08-21T21:09:11.123Z,68.85
2018-08-21T21:10:25.685Z,68.95
2018-08-21T21:11:39.850Z,69.05
2018-08-21T21:13:08.669Z,69.05
2018-08-21T21:14:23.047Z,69.05
2018-08-21T21:15:37.141Z,69.53
2018-08-21T21:16:51.654Z,69.82
2018-08-21T21:18:05.647Z,69.73
2018-08-21T21:19:19.627Z,69.82
2018-08-21T21:20:34.150Z,70.01
2018-08-21T21:21:48.777Z,69.82
2018-08-21T21:23:03.947Z,69.73
2018-08-21T21:24:18.225Z,70.01
2018-08-21T21:25:32.354Z,70.11
2018-08-21T21:26:47.538Z,70.11
2018-08-21T21:28:01.378Z,70.27
2018-08-21T21:29:15.221Z,70.37
2018-08-21T21:30:29.577Z,70.18
2018-08-21T21:31:43.490Z,70.21
2018-08-21T21:32:58.338Z,70.11
2018-08-21T21:34:13.212Z,70.21
2018-08-21T21:35:27.706Z,70.08
2018-08-21T21:36:56.881Z,70.01
2018-08-21T21:38:11.383Z,70.31
2018-08-21T21:39:25.098Z,70.5
2018-08-21T21:40:39.577Z,70.76
2018-08-21T21:41:53.644Z,70.66
2018-08-21T21:43:07.787Z,70.86
2018-08-21T21:44:22.711Z,71.04
2018-08-21T21:45:37.361Z,71.04
2018-08-21T21:46:51.269Z,71.04
2018-08-21T21:48:05.632Z,70.95
2018-08-21T21:49:19.781Z,71.62
2018-08-21T21:50:33.831Z,71.62
2018-08-21T21:51:48.440Z,71.62
2018-08-21T21:53:02.748Z,71.62
2018-08-21T21:54:17.620Z,71.44
2018-08-21T21:55:31.845Z,71.53
2018-08-21T21:56:45.780Z,71.34
2018-08-21T21:58:00.150Z,71.24
2018-08-21T21:59:14.916Z,72.21
2018-08-21T22:00:28.922Z,72.17
2018-08-21T22:01:43.226Z,72.02
2018-08-21T22:02:57.649Z,72.11
2018-08-21T22:04:12.401Z,71.72
2018-08-21T22:05:27.368Z,71.62
2018-08-21T22:06:56.213Z,72.11
2018-08-21T22:08:10.856Z,72.21
2018-08-21T22:09:25.170Z,71.92
2018-08-21T22:10:39.286Z,72.02
2018-08-21T22:11:53.583Z,72.02
2018-08-21T22:13:07.553Z,72.3
2018-08-21T22:14:22.197Z,72.4
2018-08-21T22:15:36.612Z,72.6
2018-08-21T22:16:50.932Z,72.5
2018-08-21T22:18:05.148Z,72.4
2018-08-21T22:19:18.649Z,72.21
2018-08-21T22:20:32.905Z,72.89
2018-08-21T22:21:46.790Z,73.27
2018-08-21T22:23:00.620Z,72.75
2018-08-21T22:24:14.944Z,73.04
2018-08-21T22:25:29.113Z,73.24
2018-08-21T22:26:44.021Z,73.33
2018-08-21T22:27:58.672Z,73.53
2018-08-21T22:29:12.349Z,73.91
2018-08-21T22:30:27.220Z,74.01
2018-08-21T22:31:41.728Z,73.72
2018-08-21T22:32:56.321Z,73.43
2018-08-21T22:34:10.612Z,73.82
2018-08-21T22:35:24.929Z,74.3
2018-08-21T22:36:38.855Z,74.01
2018-08-21T22:37:53.202Z,74.01
2018-08-21T22:39:07.374Z,74.3
2018-08-21T22:40:21.677Z,74.85
2018-08-21T22:41:35.491Z,74.79
2018-08-21T22:42:49.344Z,74.46
2018-08-21T22:44:03.563Z,74.65
2018-08-21T22:45:18.148Z,75.13
2018-08-21T22:46:32.478Z,74.94
2018-08-21T22:47:46.705Z,74.94
2018-08-21T22:49:01.325Z,74.65
2018-08-21T22:50:15.212Z,75.23
2018-08-21T22:51:29.501Z,74.94
2018-08-21T22:52:43.585Z,75.13
2018-08-21T22:53:57.788Z,74.75
2018-08-21T22:55:12.303Z,75.33
2018-08-21T22:56:26.409Z,75.71
2018-08-21T22:57:40.796Z,75.52
2018-08-21T22:58:54.812Z,75.91
2018-08-21T23:00:09.412Z,75.52
2018-08-21T23:01:24.209Z,75.23
2018-08-21T23:02:38.239Z,75.43
2018-08-21T23:03:52.157Z,75.71
2018-08-21T23:05:06.140Z,75.62
2018-08-21T23:06:20.235Z,76.2
2018-08-21T23:07:34.617Z,76.29
2018-08-21T23:08:49.234Z,75.81
2018-08-21T23:10:03.700Z,76.16
2018-08-21T23:11:17.393Z,76.01
2018-08-21T23:12:31.702Z,76.16
2018-08-21T23:13:46.000Z,76.45
2018-08-21T23:14:59.616Z,76.16
2018-08-21T23:16:14.124Z,76.1
2018-08-21T23:17:28.206Z,76.16
2018-08-21T23:18:42.276Z,76.26
2018-08-21T23:19:56.323Z,76.84
2018-08-21T23:21:10.826Z,76.64
2018-08-21T23:22:25.170Z,77.03
2018-08-21T23:23:39.837Z,77.61
2018-08-21T23:24:53.923Z,77.42
2018-08-21T23:26:07.974Z,77.51
2018-08-21T23:27:21.949Z,77.42
2018-08-21T23:28:36.102Z,77.32
2018-08-21T23:29:49.988Z,77.8
2018-08-21T23:31:04.075Z,77.8
2018-08-21T23:32:18.129Z,77.8
2018-08-21T23:33:32.425Z,78.19
2018-08-21T23:34:46.996Z,78.09
2018-08-21T23:36:01.117Z,77.8
2018-08-21T23:37:15.409Z,78.29
2018-08-21T23:38:28.996Z,78.29
2018-08-21T23:39:43.641Z,78.58
2018-08-21T23:40:58.190Z,78.67
2018-08-21T23:42:12.524Z,78.77
2018-08-21T23:43:26.879Z,78.87
2018-08-21T23:44:40.959Z,79.16
2018-08-21T23:45:55.018Z,79.12
2018-08-21T23:47:09.357Z,78.96
2018-08-21T23:48:23.191Z,79.12
2018-08-21T23:49:36.992Z,79.31
2018-08-21T23:50:50.865Z,79.22
2018-08-21T23:52:05.017Z,79.22
2018-08-21T23:53:19.309Z,79.6
2018-08-21T23:54:33.635Z,79.8
2018-08-21T23:55:47.428Z,79.6
2018-08-21T23:57:01.048Z,79.8
2018-08-21T23:58:15.545Z,79.7
2018-08-21T23:59:30.098Z,79.5
